地図

経路データ

SID SEASON NUMBER BASIN SUBBASIN NAME ISO_TIME NATURE LAT LON WMO_WIND WMO_PRES WMO_AGENCY TRACK_TYPE DIST2LAND LANDFALL IFLAG USA_AGENCY USA_ATCF_ID USA_LAT USA_LON USA_RECORD USA_STATUS USA_WIND USA_PRES USA_SSHS USA_R34_NE USA_R34_SE USA_R34_SW USA_R34_NW USA_R50_NE USA_R50_SE USA_R50_SW USA_R50_NW USA_R64_NE USA_R64_SE USA_R64_SW USA_R64_NW USA_POCI USA_ROCI USA_RMW USA_EYE TOKYO_LAT TOKYO_LON TOKYO_GRADE TOKYO_WIND TOKYO_PRES TOKYO_R50_DIR TOKYO_R50_LONG TOKYO_R50_SHORT TOKYO_R30_DIR TOKYO_R30_LONG TOKYO_R30_SHORT TOKYO_LAND CMA_LAT CMA_LON CMA_CAT CMA_WIND CMA_PRES HKO_LAT HKO_LON HKO_CAT HKO_WIND HKO_PRES NEWDELHI_LAT NEWDELHI_LON NEWDELHI_GRADE NEWDELHI_WIND NEWDELHI_PRES NEWDELHI_CI NEWDELHI_DP NEWDELHI_POCI REUNION_LAT REUNION_LON REUNION_TYPE REUNION_WIND REUNION_PRES REUNION_TNUM REUNION_CI REUNION_RMW REUNION_R34_NE REUNION_R34_SE REUNION_R34_SW REUNION_R34_NW REUNION_R50_NE REUNION_R50_SE REUNION_R50_SW REUNION_R50_NW REUNION_R64_NE REUNION_R64_SE REUNION_R64_SW REUNION_R64_NW BOM_LAT BOM_LON BOM_TYPE BOM_WIND BOM_PRES BOM_TNUM BOM_CI BOM_RMW BOM_R34_NE BOM_R34_SE BOM_R34_SW BOM_R34_NW BOM_R50_NE BOM_R50_SE BOM_R50_SW BOM_R50_NW BOM_R64_NE BOM_R64_SE BOM_R64_SW BOM_R64_NW BOM_ROCI BOM_POCI BOM_EYE BOM_POS_METHOD BOM_PRES_METHOD NADI_LAT NADI_LON NADI_CAT NADI_WIND NADI_PRES WELLINGTON_LAT WELLINGTON_LON WELLINGTON_WIND WELLINGTON_PRES DS824_LAT DS824_LON DS824_STAGE DS824_WIND DS824_PRES TD9636_LAT TD9636_LON TD9636_STAGE TD9636_WIND TD9636_PRES TD9635_LAT TD9635_LON TD9635_WIND TD9635_PRES TD9635_ROCI NEUMANN_LAT NEUMANN_LON NEUMANN_CLASS NEUMANN_WIND NEUMANN_PRES MLC_LAT MLC_LON MLC_CLASS MLC_WIND MLC_PRES USA_GUST BOM_GUST BOM_GUST_PER REUNION_GUST REUNION_GUST_PER USA_SEAHGT USA_SEARAD_NE USA_SEARAD_SE USA_SEARAD_SW USA_SEARAD_NW STORM_SPEED STORM_DIR
1879284N19092 1879 26 NI BB NOT_NAMED 1879-10-11 00:00:00 TS 19.2000 92.0000 main 137 137 _________O____ -1 19.2000 92.0000 TC 30 3 293
1879284N19092 1879 26 NI BB NOT_NAMED 1879-10-11 03:00:00 TS 19.2650 91.8417 main 145 145 _________PO___ -1 19.2975 91.7625 TC 30 19.2000 92.0000 1 4 293
1879284N19092 1879 26 NI BB NOT_NAMED 1879-10-11 06:00:00 TS 19.3645 91.5908 main 152 152 _________OP___ -1 19.4000 91.5000 TC 30 19.3112 91.7269 1 5 292
1879284N19092 1879 26 NI BB NOT_NAMED 1879-10-11 09:00:00 TS 19.4691 91.3084 main 171 171 _________PP___ -1 19.5075 91.2000 TC 30 19.4178 91.4529 1 6 290
1879284N19092 1879 26 NI BB NOT_NAMED 1879-10-11 12:00:00 TS 19.5577 91.0387 main 191 191 _________OP___ -1 19.6000 90.9000 TC 30 19.5155 91.1774 1 5 288
1879284N19092 1879 26 NI BB NOT_NAMED 1879-10-11 15:00:00 TS 19.6287 90.7750 main 207 207 _________PO___ -1 19.6574 90.6499 TC 30 19.6000 90.9000 1 5 284
1879284N19092 1879 26 NI BB NOT_NAMED 1879-10-11 18:00:00 TS 19.6842 90.5104 main 227 227 _________OP___ -1 19.7000 90.4000 TC 30 19.6684 90.6208 1 5 282
1879284N19092 1879 26 NI BB NOT_NAMED 1879-10-11 21:00:00 TS 19.7400 90.2212 main 234 217 _________PP___ -1 19.7575 90.1000 TC 30 19.7224 90.3424 1 6 280
1879284N19092 1879 26 NI BB NOT_NAMED 1879-10-12 00:00:00 TS 19.7826 89.9339 main 217 210 _________OP___ -1 19.8000 89.8000 TC 30 19.7652 90.0677 1 5 277
1879284N19092 1879 26 NI BB NOT_NAMED 1879-10-12 03:00:00 TS 19.8000 89.6712 main 210 203 _________PO___ -1 19.7999 89.5424 TC 30 19.8000 89.8000 1 5 274
1879284N19092 1879 26 NI BB NOT_NAMED 1879-10-12 06:00:00 TS 19.8161 89.4173 main 203 201 _________OP___ -1 19.8000 89.3000 TC 30 19.8321 89.5346 1 5 276
1879284N19092 1879 26 NI BB NOT_NAMED 1879-10-12 09:00:00 TS 19.8499 89.1637 main 201 190 _________PP___ -1 19.8425 89.0500 TC 30 19.8574 89.2774 1 5 279
1879284N19092 1879 26 NI BB NOT_NAMED 1879-10-12 12:00:00 TS 19.8895 88.9158 main 190 190 _________OP___ -1 19.9000 88.8000 TC 30 19.8790 89.0315 1 5 280
1879284N19092 1879 26 NI BB NOT_NAMED 1879-10-12 15:00:00 TS 19.9288 88.6675 main 191 165 _________PO___ -1 19.9575 88.5350 TC 30 19.9000 88.8000 1 5 279
1879284N19092 1879 26 NI BB NOT_NAMED 1879-10-12 18:00:00 TS 19.9645 88.4266 main 165 147 _________OP___ -1 20.0000 88.3000 TC 30 19.9291 88.5532 1 4 277
1879284N19092 1879 26 NI BB NOT_NAMED 1879-10-12 21:00:00 TS 19.9825 88.2188 main 147 138 _________PP___ -1 20.0075 88.1125 TC 30 19.9576 88.3250 1 3 275
1879284N19092 1879 26 NI BB NOT_NAMED 1879-10-13 00:00:00 TS 19.9911 88.0672 main 138 130 _________OP___ -1 20.0000 88.0000 TC 30 19.9822 88.1344 1 2 275
1879284N19092 1879 26 NI BB NOT_NAMED 1879-10-13 03:00:00 TS 20.0000 87.9888 main 130 130 _________PO___ -1 20.0000 87.9775 TC 30 20.0000 88.0000 1 1 278
1879284N19092 1879 26 NI BB NOT_NAMED 1879-10-13 06:00:00 TS 20.0035 87.9712 main 130 130 _________OP___ -1 20.0000 88.0000 TC 30 20.0070 87.9425 1 0 0
1879284N19092 1879 26 NI BB NOT_NAMED 1879-10-13 09:00:00 TS 20.0037 87.9700 main 130 130 _________PP___ -1 20.0000 88.0000 TC 30 20.0074 87.9400 1 0 0
1879284N19092 1879 26 NI BB NOT_NAMED 1879-10-13 12:00:00 TS 20.0020 87.9837 main 130 130 _________OP___ -1 20.0000 88.0000 TC 30 20.0040 87.9675 1 0 95
1879284N19092 1879 26 NI BB NOT_NAMED 1879-10-13 15:00:00 TS 20.0000 88.0000 main 130 130 _________PO___ -1 20.0000 88.0000 TC 30 20.0000 88.0000 1 1 137
1879284N19092 1879 26 NI BB NOT_NAMED 1879-10-13 18:00:00 TS 19.9613 88.0321 main 130 130 _________OP___ -1 20.0000 88.0000 TC 30 19.9225 88.0641 1 1 141
1879284N19092 1879 26 NI BB NOT_NAMED 1879-10-13 21:00:00 TS 19.9022 88.0816 main 145 145 _________PP___ -1 19.9474 88.0448 TC 30 19.8570 88.1184 1 0 139
1879284N19092 1879 26 NI BB NOT_NAMED 1879-10-14 00:00:00 TS 19.9315 88.0567 main 145 115 _________OP___ -1 20.0000 88.0000 TC 30 19.8629 88.1134 1 3 322
1879284N19092 1879 26 NI BB NOT_NAMED 1879-10-14 03:00:00 TS 20.1300 87.8873 main 115 66 _________PO___ -1 20.2599 87.7747 TC 30 20.0000 88.0000 1 8 320
1879284N19092 1879 26 NI BB NOT_NAMED 1879-10-14 06:00:00 TS 20.5137 87.5342 main 56 15 _________OP___ -1 20.7000 87.4000 TC 30 20.3274 87.6685 1 12 319
1879284N19092 1879 26 NI BB NOT_NAMED 1879-10-14 09:00:00 TS 21.0324 87.0596 main 23 0 _________PP___ -1 21.2779 86.8859 TC 30 20.7868 87.2334 1 14 321
1879284N19092 1879 26 NI BB NOT_NAMED 1879-10-14 12:00:00 TS 21.6138 86.5906 main 0 0 _________OP___ -1 21.9000 86.4000 TC 30 21.3276 86.7812 1 13 326
1879284N19092 1879 26 NI BB NOT_NAMED 1879-10-14 15:00:00 TS 22.1499 86.2623 main 0 0 _________PO___ -1 22.3998 86.1246 TC 30 21.9000 86.4000 1 11 336
1879284N19092 1879 26 NI BB NOT_NAMED 1879-10-14 18:00:00 TS 22.6510 86.0902 main 0 0 _________OP___ -1 22.9000 86.0000 TC 30 22.4642 86.1579 1 11 348
1879284N19092 1879 26 NI BB NOT_NAMED 1879-10-14 21:00:00 TS 23.1997 86.0123 main 0 0 _________PP___ -1 23.4751 85.9750 TC 30 23.0161 86.0372 1 11 355
1879284N19092 1879 26 NI BB NOT_NAMED 1879-10-15 00:00:00 TS 23.7400 85.9987 main 0 0 _________OP___ -1 24.1000 86.0000 TC 30 23.5600 85.9980 1 9 359
1879284N19092 1879 26 NI BB NOT_NAMED 1879-10-15 03:00:00 NR 24.1000 86.0000 main 0 __________O___ -1 TC 24.1000 86.0000 1 7 3

IBTrACS Databaseについて

本データベースは、米国NOAAが公開する1842年以降の世界の熱帯低気圧のベストトラックデータアーカイブInternational Best Track Archive for Climate Stewardship (IBTrACS)を、ウェブで閲覧しやすい形式に変換したものです。

最終更新日:2021-12-03